createdAt,value
2023-05-19T00:05:31.236Z,5.35
2023-05-19T00:19:04.689Z,8.63
2023-05-19T00:21:09.350Z,7.03
2023-05-19T00:23:12.137Z,7.20
2023-05-19T00:25:14.668Z,5.95
2023-05-19T00:27:17.276Z,6.63
2023-05-19T00:29:19.911Z,7.38
2023-05-19T00:31:22.795Z,6.18
2023-05-19T00:33:25.777Z,7.18
2023-05-19T00:35:28.311Z,7.15
2023-05-19T00:37:31.027Z,7.25
2023-05-19T00:39:33.575Z,6.88
2023-05-19T00:41:36.417Z,8.45
2023-05-19T00:43:39.131Z,7.47
2023-05-19T00:45:41.779Z,8.13
2023-05-19T00:47:44.563Z,7.68
2023-05-19T00:49:47.320Z,8.32
2023-05-19T00:51:50.143Z,8.60
2023-05-19T00:53:52.988Z,7.18
2023-05-19T00:55:55.814Z,6.72
2023-05-19T00:57:58.829Z,6.45
2023-05-19T01:00:01.467Z,4.70
2023-05-19T01:02:08.152Z,4.57
2023-05-19T01:04:11.516Z,4.32
2023-05-19T01:06:15.208Z,4.75
2023-05-19T01:08:18.397Z,4.50
2023-05-19T01:10:21.254Z,5.28
2023-05-19T01:12:24.098Z,4.70
2023-05-19T01:14:27.389Z,4.03
2023-05-19T01:16:43.652Z,4.55
2023-05-19T01:19:12.424Z,4.15
2023-05-19T01:21:36.658Z,3.72
2023-05-19T01:24:09.239Z,4.15
2023-05-19T01:26:20.778Z,4.07
2023-05-19T01:28:43.064Z,3.35
2023-05-19T01:30:52.800Z,4.40
2023-05-19T01:33:03.381Z,3.20
2023-05-19T01:35:08.411Z,4.15
2023-05-19T01:37:15.119Z,3.30
2023-05-19T01:39:17.753Z,4.07
2023-05-19T01:41:23.129Z,3.30
2023-05-19T01:43:27.584Z,3.72
2023-05-19T01:45:32.618Z,3.38
2023-05-19T01:47:38.582Z,3.42
2023-05-19T01:49:41.473Z,2.92
2023-05-19T01:51:44.300Z,3.55
2023-05-19T01:53:47.004Z,3.80
2023-05-19T01:55:52.648Z,3.72
2023-05-19T01:58:19.222Z,3.65
2023-05-19T02:00:54.344Z,4.05
2023-05-19T02:03:09.346Z,3.60
2023-05-19T02:05:29.665Z,2.97
2023-05-19T02:07:48.825Z,4.00
2023-05-19T02:10:05.013Z,4.32
2023-05-19T02:12:18.886Z,3.08
2023-05-19T02:14:46.063Z,3.28
2023-05-19T02:16:49.420Z,3.00
2023-05-19T02:18:54.101Z,2.97
2023-05-19T02:20:56.840Z,3.55
2023-05-19T02:22:59.386Z,3.25
2023-05-19T02:25:02.334Z,2.88
2023-05-19T02:27:06.506Z,3.38
2023-05-19T02:29:09.065Z,3.25
2023-05-19T02:31:11.794Z,3.08
2023-05-19T02:33:14.449Z,3.13
2023-05-19T02:35:17.410Z,3.45
2023-05-19T02:37:23.928Z,3.00
2023-05-19T02:39:26.782Z,3.55
2023-05-19T02:41:29.538Z,3.75
2023-05-19T02:43:32.215Z,3.28
2023-05-19T02:45:34.877Z,2.85
2023-05-19T02:47:38.489Z,4.07
2023-05-19T02:49:41.438Z,3.42
2023-05-19T02:51:44.076Z,2.60
2023-05-19T02:53:46.653Z,4.63
2023-05-19T02:55:49.353Z,3.47
2023-05-19T02:57:51.940Z,3.17
2023-05-19T02:59:54.573Z,3.30
2023-05-19T03:02:02.098Z,4.32
2023-05-19T03:04:04.986Z,3.80
2023-05-19T03:06:10.844Z,3.75
2023-05-19T03:08:13.496Z,3.22
2023-05-19T03:10:16.179Z,3.55
2023-05-19T03:12:18.935Z,3.65
2023-05-19T03:14:24.265Z,3.33
2023-05-19T03:16:28.330Z,3.28
2023-05-19T03:18:31.210Z,3.15
2023-05-19T03:20:34.082Z,3.15
2023-05-19T03:22:37.074Z,2.92
2023-05-19T03:24:39.704Z,3.70
2023-05-19T03:26:42.955Z,3.78
2023-05-19T03:28:45.616Z,3.08
2023-05-19T03:30:50.231Z,3.42
2023-05-19T03:32:53.427Z,3.38
2023-05-19T03:34:56.127Z,2.80
2023-05-19T03:36:58.652Z,3.25
2023-05-19T03:39:01.311Z,3.35
2023-05-19T03:41:04.236Z,3.33
2023-05-19T03:43:07.454Z,3.25
2023-05-19T03:45:10.417Z,3.40
2023-05-19T03:47:13.078Z,3.38
2023-05-19T03:49:15.796Z,3.13
2023-05-19T03:51:18.797Z,3.25
2023-05-19T03:53:21.660Z,3.75
2023-05-19T03:55:24.369Z,3.90
2023-05-19T03:57:27.227Z,3.20
2023-05-19T03:59:29.808Z,3.28
2023-05-19T04:01:32.433Z,3.83
2023-05-19T04:03:35.279Z,3.92
2023-05-19T04:05:38.502Z,3.50
2023-05-19T04:07:41.829Z,3.10
2023-05-19T04:09:45.323Z,3.83
2023-05-19T04:11:48.013Z,3.78
2023-05-19T04:13:50.756Z,3.67
2023-05-19T04:15:53.630Z,4.57
2023-05-19T04:17:56.327Z,3.47
2023-05-19T04:19:58.989Z,3.28
2023-05-19T04:22:01.691Z,4.70
2023-05-19T04:24:06.552Z,3.20
2023-05-19T04:26:09.409Z,3.80
2023-05-19T04:28:13.104Z,3.17
2023-05-19T04:30:22.458Z,2.83
2023-05-19T04:32:25.820Z,3.70
2023-05-19T04:34:28.838Z,3.15
2023-05-19T04:36:31.386Z,3.10
2023-05-19T04:38:34.633Z,3.15
2023-05-19T04:40:37.342Z,3.45
2023-05-19T04:42:43.246Z,3.47
2023-05-19T04:44:46.255Z,3.08
2023-05-19T04:46:50.222Z,3.22
2023-05-19T04:48:55.450Z,3.70
2023-05-19T04:50:58.014Z,3.55
2023-05-19T04:53:01.040Z,3.45
2023-05-19T04:55:04.357Z,4.25
2023-05-19T04:57:10.613Z,3.60
2023-05-19T04:59:13.332Z,4.60
2023-05-19T05:01:16.206Z,4.43
2023-05-19T05:03:19.356Z,3.47
2023-05-19T05:05:22.071Z,3.08
2023-05-19T05:07:24.750Z,2.90
2023-05-19T05:09:27.330Z,3.70
2023-05-19T05:11:30.271Z,3.13
2023-05-19T05:13:33.296Z,3.50
2023-05-19T05:15:36.173Z,3.33
2023-05-19T05:17:39.270Z,2.85
2023-05-19T05:19:42.399Z,4.03
2023-05-19T05:21:45.987Z,3.38
2023-05-19T05:23:49.399Z,3.15
2023-05-19T05:25:52.158Z,2.90
2023-05-19T05:27:54.924Z,3.97
2023-05-19T05:29:59.221Z,3.75
2023-05-19T05:32:02.412Z,2.63
2023-05-19T05:34:05.310Z,3.05
2023-05-19T05:36:08.372Z,3.05
2023-05-19T05:38:11.713Z,3.63
2023-05-19T05:40:14.517Z,3.35
2023-05-19T05:42:17.160Z,3.60
2023-05-19T05:44:19.730Z,3.30
2023-05-19T05:46:22.288Z,3.05
2023-05-19T05:48:25.334Z,2.47
2023-05-19T05:50:28.293Z,2.40
2023-05-19T05:52:32.645Z,2.50
2023-05-19T05:54:35.939Z,2.63
2023-05-19T05:56:38.876Z,2.58
2023-05-19T05:58:41.600Z,2.75
2023-05-19T06:00:44.490Z,3.42
2023-05-19T06:02:50.704Z,3.00
2023-05-19T06:04:54.310Z,2.90
2023-05-19T06:07:01.321Z,2.47
2023-05-19T06:09:04.691Z,2.83
2023-05-19T06:11:09.217Z,2.58
2023-05-19T06:13:11.896Z,2.78
2023-05-19T06:15:14.492Z,3.03
2023-05-19T06:17:17.088Z,2.80
2023-05-19T06:19:22.941Z,3.05
2023-05-19T06:21:25.859Z,2.90
2023-05-19T06:23:29.299Z,2.92
2023-05-19T06:25:32.337Z,3.15
2023-05-19T06:27:35.744Z,2.85
2023-05-19T06:29:38.380Z,2.65
2023-05-19T06:31:41.081Z,2.30
2023-05-19T06:33:43.687Z,3.38
2023-05-19T06:35:46.244Z,2.70
2023-05-19T06:37:48.948Z,2.53
2023-05-19T06:39:54.017Z,2.25
2023-05-19T06:41:56.649Z,2.00
2023-05-19T06:43:59.749Z,2.88
2023-05-19T06:46:02.602Z,2.83
2023-05-19T06:48:05.773Z,2.38
2023-05-19T06:50:11.238Z,2.40
2023-05-19T06:52:13.874Z,2.58
2023-05-19T06:54:16.596Z,3.15
2023-05-19T06:56:19.494Z,2.63
2023-05-19T06:58:22.142Z,2.95
2023-05-19T07:00:25.204Z,3.15
2023-05-19T07:02:28.009Z,2.60
2023-05-19T07:04:30.693Z,2.35
2023-05-19T07:06:34.050Z,3.28
2023-05-19T07:08:37.527Z,2.92
2023-05-19T07:10:40.199Z,2.88
2023-05-19T07:12:43.007Z,2.42
2023-05-19T07:14:45.706Z,2.50
2023-05-19T07:16:48.303Z,2.78
2023-05-19T07:18:51.115Z,2.45
2023-05-19T07:20:54.175Z,2.17
2023-05-19T07:22:56.822Z,2.55
2023-05-19T07:24:59.580Z,2.17
2023-05-19T07:27:02.331Z,2.67
2023-05-19T07:29:04.972Z,2.42
2023-05-19T07:31:07.514Z,2.70
2023-05-19T07:33:10.229Z,2.42
2023-05-19T07:35:13.226Z,2.30
2023-05-19T07:37:16.821Z,2.33
2023-05-19T07:39:19.779Z,3.17
2023-05-19T07:41:23.156Z,3.03
2023-05-19T07:43:25.837Z,3.17
2023-05-19T07:45:31.410Z,2.80
2023-05-19T07:47:34.226Z,2.50
2023-05-19T07:49:36.868Z,4.00
2023-05-19T07:51:39.512Z,2.67
2023-05-19T07:53:42.036Z,2.42
2023-05-19T07:55:44.624Z,2.50
2023-05-19T07:57:47.479Z,2.47
2023-05-19T07:59:50.218Z,2.10
2023-05-19T08:01:53.026Z,2.47
2023-05-19T08:03:55.981Z,2.25
2023-05-19T08:05:58.549Z,3.75
2023-05-19T08:08:01.225Z,2.67
2023-05-19T08:10:04.298Z,2.00
2023-05-19T08:12:07.836Z,2.13
2023-05-19T08:14:11.041Z,2.03
2023-05-19T08:16:13.669Z,2.90
2023-05-19T08:18:17.396Z,2.78
2023-05-19T08:20:20.499Z,2.10
2023-05-19T08:22:23.390Z,2.42
2023-05-19T08:24:26.596Z,1.80
2023-05-19T08:26:29.507Z,2.33
2023-05-19T08:28:32.358Z,2.05
2023-05-19T08:30:35.243Z,2.35
2023-05-19T08:32:38.269Z,1.80
2023-05-19T08:34:41.574Z,2.00
2023-05-19T08:36:45.478Z,2.13
2023-05-19T08:38:48.115Z,2.40
2023-05-19T08:40:50.891Z,1.92
2023-05-19T08:42:54.603Z,2.20
2023-05-19T08:44:57.682Z,1.83
2023-05-19T08:47:12.939Z,1.67
2023-05-19T08:49:20.542Z,2.22
2023-05-19T08:51:44.846Z,2.10
2023-05-19T08:53:53.908Z,2.33
2023-05-19T08:56:10.130Z,1.77
2023-05-19T08:58:13.493Z,2.63
2023-05-19T09:00:17.225Z,2.03
2023-05-19T09:02:20.316Z,2.28
2023-05-19T09:04:25.999Z,2.47
2023-05-19T09:06:32.525Z,2.35
2023-05-19T09:08:36.202Z,2.20
2023-05-19T09:10:38.809Z,2.70
2023-05-19T09:12:43.250Z,2.20
2023-05-19T09:14:45.902Z,2.80
2023-05-19T09:16:51.211Z,2.35
2023-05-19T09:18:57.684Z,2.45
2023-05-19T09:21:03.148Z,2.67
2023-05-19T09:23:06.298Z,2.72
2023-05-19T09:25:19.767Z,2.30
2023-05-19T09:27:23.711Z,2.45
2023-05-19T09:29:26.347Z,2.00
2023-05-19T09:31:33.390Z,2.17
2023-05-19T09:33:45.634Z,2.55
2023-05-19T09:35:48.654Z,2.95
2023-05-19T09:37:51.328Z,2.17
2023-05-19T09:39:54.281Z,1.95
2023-05-19T09:41:59.965Z,1.98
2023-05-19T09:44:02.729Z,2.05
2023-05-19T09:46:11.986Z,2.15
2023-05-19T09:48:16.666Z,2.35
2023-05-19T09:50:19.307Z,2.53
2023-05-19T09:52:22.366Z,2.78
2023-05-19T09:54:25.687Z,2.00
2023-05-19T09:56:34.472Z,2.60
2023-05-19T09:58:37.803Z,2.50
2023-05-19T10:00:41.001Z,2.13
2023-05-19T10:02:48.460Z,2.42
2023-05-19T10:04:53.533Z,2.53
2023-05-19T10:06:59.911Z,2.83
2023-05-19T10:09:04.512Z,2.03
2023-05-19T10:11:07.880Z,2.55
2023-05-19T10:13:10.962Z,3.22
2023-05-19T10:15:15.702Z,2.72
2023-05-19T10:17:18.850Z,3.28
2023-05-19T10:19:23.222Z,2.17
2023-05-19T10:21:26.303Z,2.55
2023-05-19T10:23:28.928Z,2.78
2023-05-19T10:25:33.797Z,2.30
2023-05-19T10:27:40.867Z,3.60
2023-05-19T10:29:50.137Z,2.33
2023-05-19T10:31:55.322Z,2.67
2023-05-19T10:34:19.342Z,3.15
2023-05-19T10:36:24.842Z,2.65
2023-05-19T10:38:52.683Z,2.70
2023-05-19T10:41:08.405Z,2.53
2023-05-19T10:43:38.633Z,3.00
2023-05-19T10:45:49.708Z,2.80
2023-05-19T10:47:52.531Z,2.60
2023-05-19T10:49:56.025Z,3.03
2023-05-19T10:51:58.661Z,3.25
2023-05-19T10:54:11.473Z,2.92
2023-05-19T10:56:34.878Z,3.33
2023-05-19T10:58:44.166Z,2.75
2023-05-19T11:00:47.222Z,2.47
2023-05-19T11:02:56.281Z,3.28
2023-05-19T11:05:20.547Z,2.88
2023-05-19T11:07:24.972Z,3.17
2023-05-19T11:09:37.932Z,2.97
2023-05-19T11:11:54.343Z,2.33
2023-05-19T11:13:57.654Z,2.90
2023-05-19T11:16:08.345Z,2.42
2023-05-19T11:18:16.199Z,3.33
2023-05-19T11:20:25.839Z,2.80
2023-05-19T11:22:28.922Z,3.10
2023-05-19T11:24:44.711Z,3.85
2023-05-19T11:26:47.670Z,2.60
2023-05-19T11:28:52.189Z,3.13
2023-05-19T11:30:57.883Z,2.92
2023-05-19T11:33:01.294Z,2.63
2023-05-19T11:35:03.946Z,2.70
2023-05-19T11:37:10.129Z,2.45
2023-05-19T11:39:13.648Z,2.92
2023-05-19T11:41:18.199Z,2.83
2023-05-19T11:43:27.685Z,2.35
2023-05-19T11:45:33.295Z,2.55
2023-05-19T11:47:50.833Z,3.53
2023-05-19T11:49:59.194Z,2.95
2023-05-19T11:52:02.409Z,2.55
2023-05-19T11:54:05.126Z,3.40
2023-05-19T11:56:07.804Z,2.38
2023-05-19T11:58:10.377Z,3.53
2023-05-19T12:00:14.825Z,3.13
2023-05-19T12:02:20.404Z,3.35
2023-05-19T12:04:23.598Z,3.22
2023-05-19T12:06:27.115Z,2.35
2023-05-19T12:08:29.996Z,2.47
2023-05-19T12:10:34.393Z,3.42
2023-05-19T12:12:36.967Z,3.20
2023-05-19T12:14:39.654Z,2.50
2023-05-19T12:16:42.418Z,2.65
2023-05-19T12:18:45.142Z,3.03
2023-05-19T12:20:48.037Z,3.65
2023-05-19T12:22:52.027Z,2.95
2023-05-19T12:24:54.944Z,2.95
2023-05-19T12:27:10.376Z,2.67
2023-05-19T12:29:13.803Z,2.90
2023-05-19T12:31:16.603Z,3.17
2023-05-19T12:33:19.922Z,2.92
2023-05-19T12:35:27.032Z,3.63
2023-05-19T12:37:33.476Z,2.88
2023-05-19T12:39:36.532Z,3.42
2023-05-19T12:41:39.154Z,2.88
2023-05-19T12:43:41.805Z,3.97
2023-05-19T12:45:44.473Z,2.85
2023-05-19T12:47:50.537Z,3.00
2023-05-19T12:50:04.110Z,2.80
2023-05-19T12:52:12.752Z,2.90
2023-05-19T12:54:19.796Z,3.42
2023-05-19T12:56:27.138Z,3.17
2023-05-19T12:58:34.715Z,3.95
2023-05-19T13:00:42.635Z,3.63
2023-05-19T13:03:02.259Z,3.50
2023-05-19T13:05:05.353Z,3.28
2023-05-19T13:07:08.022Z,3.83
2023-05-19T13:09:11.605Z,3.10
2023-05-19T13:11:16.803Z,3.03
2023-05-19T13:13:20.276Z,2.75
2023-05-19T13:15:27.090Z,2.20
2023-05-19T13:17:30.946Z,1.35
2023-05-19T13:19:34.389Z,1.90
2023-05-19T13:21:38.714Z,1.73
2023-05-19T13:23:42.150Z,1.48
2023-05-19T13:25:45.542Z,1.60
2023-05-19T13:27:50.442Z,2.10
2023-05-19T13:29:53.806Z,1.60
2023-05-19T13:31:57.770Z,1.40
2023-05-19T13:34:03.129Z,1.80
2023-05-19T13:36:06.466Z,2.13
2023-05-19T13:38:10.605Z,1.67
2023-05-19T13:40:14.134Z,1.75
2023-05-19T13:42:17.831Z,1.35
2023-05-19T13:44:20.486Z,2.42
2023-05-19T13:46:32.770Z,2.10
2023-05-19T13:48:45.794Z,1.75
2023-05-19T13:50:48.472Z,1.02
2023-05-19T13:52:51.193Z,2.00
2023-05-19T13:54:57.022Z,2.08
2023-05-19T13:57:00.151Z,1.83
2023-05-19T13:59:04.247Z,2.15
2023-05-19T14:01:07.157Z,1.80
2023-05-19T14:03:10.483Z,1.75
2023-05-19T14:05:13.672Z,2.03
2023-05-19T14:07:17.038Z,2.10
2023-05-19T14:09:20.049Z,1.65
2023-05-19T14:11:22.922Z,2.38
2023-05-19T14:13:34.270Z,2.83
2023-05-19T14:15:39.157Z,1.92
2023-05-19T14:17:42.275Z,2.35
2023-05-19T14:19:45.072Z,2.72
2023-05-19T14:21:47.755Z,2.60
2023-05-19T14:23:50.452Z,2.47
2023-05-19T14:25:53.362Z,2.22
2023-05-19T14:27:55.996Z,2.10
2023-05-19T14:29:58.787Z,2.53
2023-05-19T14:32:03.501Z,2.25
2023-05-19T14:34:06.390Z,2.22
2023-05-19T14:36:09.765Z,2.70
2023-05-19T14:38:13.378Z,2.38
2023-05-19T14:40:16.046Z,1.88
2023-05-19T14:42:18.705Z,1.92
2023-05-19T14:44:21.407Z,2.38
2023-05-19T14:46:24.042Z,1.83
2023-05-19T14:48:26.705Z,1.95
2023-05-19T14:50:29.538Z,2.15
2023-05-19T14:52:32.278Z,2.33
2023-05-19T14:54:34.915Z,2.17
2023-05-19T14:56:37.773Z,2.83
2023-05-19T14:58:40.386Z,1.83
2023-05-19T15:00:43.715Z,2.60
2023-05-19T15:02:46.785Z,2.95
2023-05-19T15:04:49.573Z,2.50
2023-05-19T15:07:05.978Z,3.42
2023-05-19T15:09:14.855Z,3.20
2023-05-19T15:11:17.724Z,3.00
2023-05-19T15:13:21.657Z,2.70
2023-05-19T15:15:24.470Z,3.05
2023-05-19T15:17:27.164Z,2.15
2023-05-19T15:19:29.959Z,2.78
2023-05-19T15:21:32.808Z,2.78
2023-05-19T15:23:35.413Z,2.15
2023-05-19T15:25:38.238Z,2.47
2023-05-19T15:27:41.004Z,2.22
2023-05-19T15:29:43.897Z,2.85
2023-05-19T15:31:46.570Z,1.45
2023-05-19T15:33:49.326Z,2.88
2023-05-19T15:35:52.466Z,2.65
2023-05-19T15:37:55.235Z,2.97
2023-05-19T15:39:58.005Z,2.28
2023-05-19T15:42:00.791Z,2.67
2023-05-19T15:44:03.582Z,3.53
2023-05-19T15:46:06.437Z,3.17
2023-05-19T15:48:09.334Z,2.78
2023-05-19T15:50:14.775Z,2.53
2023-05-19T15:52:17.703Z,2.42
2023-05-19T15:54:20.575Z,2.42
2023-05-19T15:56:23.232Z,2.30
2023-05-19T15:58:26.045Z,2.83
2023-05-19T16:00:28.868Z,2.55
2023-05-19T16:02:31.631Z,2.10
2023-05-19T16:04:34.437Z,2.38
2023-05-19T16:06:37.126Z,2.97
2023-05-19T16:08:39.877Z,2.40
2023-05-19T16:10:42.545Z,2.40
2023-05-19T16:12:45.298Z,1.83
2023-05-19T16:14:47.944Z,2.97
2023-05-19T16:16:50.756Z,2.08
2023-05-19T16:18:53.689Z,2.20
2023-05-19T16:20:56.862Z,2.30
2023-05-19T16:22:59.611Z,2.97
2023-05-19T16:25:02.299Z,2.50
2023-05-19T16:27:07.598Z,2.30
2023-05-19T16:29:10.388Z,2.22
2023-05-19T16:31:13.168Z,3.63
2023-05-19T16:33:16.185Z,3.47
2023-05-19T16:35:18.934Z,2.72
2023-05-19T16:37:21.786Z,2.55
2023-05-19T16:39:24.404Z,2.60
2023-05-19T16:41:27.117Z,2.63
2023-05-19T16:43:29.731Z,2.03
2023-05-19T16:45:32.644Z,2.95
2023-05-19T16:47:35.780Z,2.35
2023-05-19T16:49:40.574Z,4.45
2023-05-19T16:51:43.328Z,2.50
2023-05-19T16:53:46.377Z,3.08
2023-05-19T16:55:49.022Z,2.58
2023-05-19T16:57:51.733Z,2.80
2023-05-19T16:59:54.368Z,2.72
2023-05-19T17:01:57.124Z,3.35
2023-05-19T17:03:59.823Z,3.20
2023-05-19T17:06:02.742Z,2.70
2023-05-19T17:08:06.286Z,3.00
2023-05-19T17:10:09.583Z,4.55
2023-05-19T17:12:12.461Z,3.28
2023-05-19T17:14:15.343Z,2.60
2023-05-19T17:16:18.421Z,3.25
2023-05-19T17:18:21.422Z,2.88
2023-05-19T17:20:24.093Z,2.92
2023-05-19T17:22:28.268Z,2.78
2023-05-19T17:24:33.502Z,3.45
2023-05-19T17:26:36.246Z,3.28
2023-05-19T17:28:39.283Z,2.70
2023-05-19T17:30:42.487Z,2.72
2023-05-19T17:32:45.286Z,3.55
2023-05-19T17:34:47.990Z,2.65
2023-05-19T17:36:50.794Z,2.75
2023-05-19T17:38:53.621Z,2.95
2023-05-19T17:41:03.037Z,3.67
2023-05-19T17:43:06.384Z,3.03
2023-05-19T17:45:12.185Z,2.72
2023-05-19T17:47:17.657Z,3.13
2023-05-19T17:49:21.284Z,3.55
2023-05-19T17:51:24.213Z,3.30
2023-05-19T17:53:27.771Z,3.45
2023-05-19T17:55:31.616Z,2.95
2023-05-19T17:57:35.727Z,2.78
2023-05-19T17:59:38.956Z,2.53
2023-05-19T18:01:42.012Z,3.60
2023-05-19T18:03:49.664Z,2.65
2023-05-19T18:05:52.916Z,3.30
2023-05-19T18:07:57.286Z,4.35
2023-05-19T18:10:01.751Z,2.92
2023-05-19T18:12:06.970Z,3.38
2023-05-19T18:14:09.598Z,3.25
2023-05-19T18:16:13.124Z,3.35
2023-05-19T18:18:15.886Z,2.50
2023-05-19T18:20:18.731Z,3.38
2023-05-19T18:22:21.521Z,3.53
2023-05-19T18:24:24.216Z,3.78
2023-05-19T18:26:26.965Z,2.92
2023-05-19T18:28:29.902Z,4.10
2023-05-19T18:30:32.857Z,2.72
2023-05-19T18:32:35.670Z,2.60
2023-05-19T18:34:38.316Z,3.42
2023-05-19T18:36:41.751Z,2.60
2023-05-19T18:38:44.483Z,2.75
2023-05-19T18:40:47.240Z,3.85
2023-05-19T18:42:50.521Z,3.08
2023-05-19T18:44:53.335Z,3.17
2023-05-19T18:46:56.059Z,2.88
2023-05-19T18:48:58.699Z,3.00
2023-05-19T18:51:03.698Z,2.83
2023-05-19T18:53:06.704Z,3.35
2023-05-19T18:55:10.124Z,3.35
2023-05-19T18:57:13.135Z,3.15
2023-05-19T18:59:15.957Z,3.45
2023-05-19T19:01:18.847Z,2.42
2023-05-19T19:03:21.702Z,3.83
2023-05-19T19:05:24.463Z,3.00
2023-05-19T19:07:27.964Z,3.13
2023-05-19T19:09:30.821Z,3.58
2023-05-19T19:11:33.541Z,2.70
2023-05-19T19:13:36.443Z,3.30
2023-05-19T19:15:39.977Z,3.20
2023-05-19T19:17:42.639Z,2.90
2023-05-19T19:19:45.514Z,3.38
2023-05-19T19:21:48.366Z,3.08
2023-05-19T19:23:56.526Z,3.08
2023-05-19T19:25:59.366Z,3.15
2023-05-19T19:28:02.592Z,3.45
2023-05-19T19:30:05.923Z,3.53
2023-05-19T19:32:11.246Z,4.07
2023-05-19T19:34:16.208Z,3.90
2023-05-19T19:36:18.863Z,3.65
2023-05-19T19:38:21.619Z,3.40
2023-05-19T19:40:25.206Z,2.75
2023-05-19T19:42:28.189Z,3.30
2023-05-19T19:44:30.833Z,3.25
2023-05-19T19:46:33.578Z,3.88
2023-05-19T19:48:36.429Z,3.67
2023-05-19T19:50:39.111Z,3.22
2023-05-19T19:52:41.771Z,3.72
2023-05-19T19:54:44.528Z,4.78
2023-05-19T19:56:47.529Z,3.97
2023-05-19T19:58:50.722Z,3.63
2023-05-19T20:01:02.031Z,3.53
2023-05-19T20:05:09.188Z,3.13
2023-05-19T20:07:12.649Z,3.47
2023-05-19T20:09:16.273Z,3.15
2023-05-19T20:11:20.013Z,3.65
2023-05-19T20:13:22.756Z,3.72
2023-05-19T20:15:25.485Z,3.90
2023-05-19T20:17:28.168Z,3.35
2023-05-19T20:19:31.030Z,3.55
2023-05-19T20:21:33.990Z,3.35
2023-05-19T20:23:38.990Z,3.67
2023-05-19T20:25:53.647Z,4.28
2023-05-19T20:28:02.348Z,4.70
2023-05-19T20:30:05.943Z,2.78
2023-05-19T20:32:11.401Z,3.53
2023-05-19T20:34:14.117Z,4.57
2023-05-19T20:36:16.808Z,3.75
2023-05-19T20:38:19.552Z,4.32
2023-05-19T20:40:22.271Z,2.85
2023-05-19T20:42:24.912Z,4.93
2023-05-19T20:44:27.504Z,3.97
2023-05-19T20:46:30.268Z,3.95
2023-05-19T20:48:33.154Z,3.60
2023-05-19T20:50:35.848Z,3.60
2023-05-19T20:52:38.607Z,3.85
2023-05-19T20:54:41.273Z,3.22
2023-05-19T20:56:43.925Z,3.58
2023-05-19T20:58:46.931Z,3.50
2023-05-19T21:00:54.317Z,3.10
2023-05-19T21:02:57.157Z,4.05
2023-05-19T21:04:59.988Z,3.38
2023-05-19T21:07:02.787Z,3.72
2023-05-19T21:09:07.005Z,4.63
2023-05-19T21:11:09.798Z,4.68
2023-05-19T21:13:12.600Z,3.38
2023-05-19T21:15:15.894Z,3.75
2023-05-19T21:17:19.354Z,3.72
2023-05-19T21:19:23.123Z,3.83
2023-05-19T21:21:26.310Z,3.80
2023-05-19T21:23:29.049Z,3.85
2023-05-19T21:25:31.963Z,3.67
2023-05-19T21:27:35.685Z,3.15
2023-05-19T21:29:38.486Z,4.10
2023-05-19T21:31:41.329Z,4.28
2023-05-19T21:33:44.251Z,3.33
2023-05-19T21:35:47.200Z,3.70
2023-05-19T21:37:49.829Z,3.80
2023-05-19T21:39:52.790Z,3.22
2023-05-19T21:41:55.669Z,4.97
2023-05-19T21:43:58.363Z,3.50
2023-05-19T21:46:01.291Z,4.35
2023-05-19T21:48:04.196Z,3.50
2023-05-19T21:50:07.563Z,4.85
2023-05-19T21:52:10.527Z,4.10
2023-05-19T21:54:13.283Z,3.85
2023-05-19T21:56:16.740Z,3.88
2023-05-19T21:58:19.757Z,4.18
2023-05-19T22:00:22.978Z,3.42
2023-05-19T22:02:25.771Z,4.57
2023-05-19T22:04:31.630Z,4.15
2023-05-19T22:06:34.491Z,3.90
2023-05-19T22:08:37.397Z,4.18
2023-05-19T22:10:40.114Z,3.53
2023-05-19T22:12:42.777Z,4.15
2023-05-19T22:14:45.309Z,4.07
2023-05-19T22:16:47.842Z,4.38
2023-05-19T22:18:50.601Z,3.67
2023-05-19T22:20:53.338Z,3.67
2023-05-19T22:22:57.458Z,4.00
2023-05-19T22:25:00.177Z,3.63
2023-05-19T22:27:02.796Z,3.50
2023-05-19T22:29:05.322Z,3.17
2023-05-19T22:31:07.906Z,3.22
2023-05-19T22:33:12.118Z,3.72
2023-05-19T22:35:14.752Z,4.47
2023-05-19T22:37:17.433Z,4.30
2023-05-19T22:39:20.046Z,4.50
2023-05-19T22:41:22.807Z,5.18
2023-05-19T22:43:25.716Z,3.70
2023-05-19T22:45:28.225Z,4.45
2023-05-19T22:47:30.858Z,4.00
2023-05-19T22:49:33.509Z,3.90
2023-05-19T22:51:36.118Z,4.35
2023-05-19T22:53:38.665Z,4.18
2023-05-19T22:55:41.376Z,3.92
2023-05-19T22:57:43.949Z,4.30
2023-05-19T22:59:46.672Z,4.53
2023-05-19T23:01:49.553Z,4.65
2023-05-19T23:03:52.184Z,4.20
2023-05-19T23:05:54.811Z,4.45
2023-05-19T23:07:57.429Z,3.60
2023-05-19T23:10:00.173Z,5.10
2023-05-19T23:12:02.794Z,3.88
2023-05-19T23:14:05.840Z,4.50
2023-05-19T23:16:08.651Z,4.20
2023-05-19T23:18:11.809Z,4.70
2023-05-19T23:20:14.587Z,4.50
2023-05-19T23:22:17.403Z,4.50
2023-05-19T23:24:19.956Z,6.25
2023-05-19T23:26:22.636Z,4.75
2023-05-19T23:28:25.247Z,4.18
2023-05-19T23:30:30.461Z,4.13
2023-05-19T23:32:33.260Z,5.05
2023-05-19T23:34:35.842Z,4.72
2023-05-19T23:36:38.502Z,4.18
2023-05-19T23:38:41.135Z,3.70
2023-05-19T23:40:44.097Z,4.40
2023-05-19T23:42:46.716Z,4.63
2023-05-19T23:44:49.454Z,3.97
2023-05-19T23:46:52.041Z,4.18
2023-05-19T23:48:54.760Z,4.40
2023-05-19T23:50:58.514Z,3.88
2023-05-19T23:53:01.055Z,4.60
2023-05-19T23:55:03.907Z,3.95
2023-05-19T23:57:08.164Z,4.00
2023-05-19T23:59:11.319Z,4.10
